sensor_id;sensor_type;location;lat;lon;timestamp;temperature;humidity
71047;SHT31;58703;48.978;8.982;2022-08-21T00:00:24;14.50;75.16
71047;SHT31;58703;48.978;8.982;2022-08-21T00:02:54;14.57;74.94
71047;SHT31;58703;48.978;8.982;2022-08-21T00:05:21;14.57;75.04
71047;SHT31;58703;48.978;8.982;2022-08-21T00:07:47;14.55;75.14
71047;SHT31;58703;48.978;8.982;2022-08-21T00:10:13;14.53;75.21
71047;SHT31;58703;48.978;8.982;2022-08-21T00:12:39;14.44;75.54
71047;SHT31;58703;48.978;8.982;2022-08-21T00:15:06;14.33;75.89
71047;SHT31;58703;48.978;8.982;2022-08-21T00:17:32;14.21;76.52
71047;SHT31;58703;48.978;8.982;2022-08-21T00:19:57;14.01;77.31
71047;SHT31;58703;48.978;8.982;2022-08-21T00:22:23;13.91;77.75
71047;SHT31;58703;48.978;8.982;2022-08-21T00:24:48;13.81;78.24
71047;SHT31;58703;48.978;8.982;2022-08-21T00:27:14;13.75;78.64
71047;SHT31;58703;48.978;8.982;2022-08-21T00:29:40;13.71;78.79
71047;SHT31;58703;48.978;8.982;2022-08-21T00:32:06;13.68;79.10
71047;SHT31;58703;48.978;8.982;2022-08-21T00:34:32;13.65;79.23
71047;SHT31;58703;48.978;8.982;2022-08-21T00:36:58;13.70;79.39
71047;SHT31;58703;48.978;8.982;2022-08-21T00:39:23;13.77;79.18
71047;SHT31;58703;48.978;8.982;2022-08-21T00:41:49;13.85;78.83
71047;SHT31;58703;48.978;8.982;2022-08-21T00:44:15;13.92;78.44
71047;SHT31;58703;48.978;8.982;2022-08-21T00:46:42;13.89;78.39
71047;SHT31;58703;48.978;8.982;2022-08-21T00:49:10;13.86;78.34
71047;SHT31;58703;48.978;8.982;2022-08-21T00:51:50;13.92;77.93
71047;SHT31;58703;48.978;8.982;2022-08-21T00:54:19;13.98;77.56
71047;SHT31;58703;48.978;8.982;2022-08-21T00:56:55;13.82;78.58
71047;SHT31;58703;48.978;8.982;2022-08-21T00:59:23;13.75;78.69
71047;SHT31;58703;48.978;8.982;2022-08-21T01:01:49;13.70;79.19
71047;SHT31;58703;48.978;8.982;2022-08-21T01:04:16;13.65;79.32
71047;SHT31;58703;48.978;8.982;2022-08-21T01:06:42;13.72;79.03
71047;SHT31;58703;48.978;8.982;2022-08-21T01:09:08;13.70;78.85
71047;SHT31;58703;48.978;8.982;2022-08-21T01:11:34;13.68;79.05
71047;SHT31;58703;48.978;8.982;2022-08-21T01:14:01;13.60;79.40
71047;SHT31;58703;48.978;8.982;2022-08-21T01:16:28;13.51;79.77
71047;SHT31;58703;48.978;8.982;2022-08-21T01:18:54;13.38;80.23
71047;SHT31;58703;48.978;8.982;2022-08-21T01:21:26;13.20;80.80
71047;SHT31;58703;48.978;8.982;2022-08-21T01:23:53;13.03;81.38
71047;SHT31;58703;48.978;8.982;2022-08-21T01:26:23;12.89;81.97
71047;SHT31;58703;48.978;8.982;2022-08-21T01:28:55;12.85;82.40
71047;SHT31;58703;48.978;8.982;2022-08-21T01:31:24;12.83;82.92
71047;SHT31;58703;48.978;8.982;2022-08-21T01:33:50;12.83;82.67
71047;SHT31;58703;48.978;8.982;2022-08-21T01:36:16;12.83;82.96
71047;SHT31;58703;48.978;8.982;2022-08-21T01:38:42;12.80;82.89
71047;SHT31;58703;48.978;8.982;2022-08-21T01:41:07;12.68;83.10
71047;SHT31;58703;48.978;8.982;2022-08-21T01:43:33;12.60;83.59
71047;SHT31;58703;48.978;8.982;2022-08-21T01:45:58;12.52;84.09
71047;SHT31;58703;48.978;8.982;2022-08-21T01:48:24;12.49;84.30
71047;SHT31;58703;48.978;8.982;2022-08-21T01:50:50;12.44;84.46
71047;SHT31;58703;48.978;8.982;2022-08-21T01:53:15;12.36;84.70
71047;SHT31;58703;48.978;8.982;2022-08-21T01:55:42;12.35;84.87
71047;SHT31;58703;48.978;8.982;2022-08-21T01:58:08;12.34;84.84
71047;SHT31;58703;48.978;8.982;2022-08-21T02:00:33;12.25;85.05
71047;SHT31;58703;48.978;8.982;2022-08-21T02:02:59;12.21;85.31
71047;SHT31;58703;48.978;8.982;2022-08-21T02:05:25;12.13;85.94
71047;SHT31;58703;48.978;8.982;2022-08-21T02:07:52;12.05;85.91
71047;SHT31;58703;48.978;8.982;2022-08-21T02:10:24;12.05;86.10
71047;SHT31;58703;48.978;8.982;2022-08-21T02:12:51;11.95;86.06
71047;SHT31;58703;48.978;8.982;2022-08-21T02:15:17;11.81;87.16
71047;SHT31;58703;48.978;8.982;2022-08-21T02:17:47;11.88;87.24
71047;SHT31;58703;48.978;8.982;2022-08-21T02:20:25;11.99;86.61
71047;SHT31;58703;48.978;8.982;2022-08-21T02:22:52;12.10;86.33
71047;SHT31;58703;48.978;8.982;2022-08-21T02:25:19;12.04;86.34
71047;SHT31;58703;48.978;8.982;2022-08-21T02:27:46;12.11;86.71
71047;SHT31;58703;48.978;8.982;2022-08-21T02:30:15;12.17;86.23
71047;SHT31;58703;48.978;8.982;2022-08-21T02:32:41;12.21;85.85
71047;SHT31;58703;48.978;8.982;2022-08-21T02:35:08;12.15;86.01
71047;SHT31;58703;48.978;8.982;2022-08-21T02:37:42;12.10;86.45
71047;SHT31;58703;48.978;8.982;2022-08-21T02:40:08;12.05;86.54
71047;SHT31;58703;48.978;8.982;2022-08-21T02:42:36;11.98;86.77
71047;SHT31;58703;48.978;8.982;2022-08-21T02:45:02;11.91;87.05
71047;SHT31;58703;48.978;8.982;2022-08-21T02:47:28;11.85;86.45
71047;SHT31;58703;48.978;8.982;2022-08-21T02:49:53;11.71;87.11
71047;SHT31;58703;48.978;8.982;2022-08-21T02:52:19;11.57;87.73
71047;SHT31;58703;48.978;8.982;2022-08-21T02:54:44;11.52;87.84
71047;SHT31;58703;48.978;8.982;2022-08-21T02:57:10;11.53;88.26
71047;SHT31;58703;48.978;8.982;2022-08-21T02:59:35;11.44;88.31
71047;SHT31;58703;48.978;8.982;2022-08-21T03:02:01;11.29;88.80
71047;SHT31;58703;48.978;8.982;2022-08-21T03:04:27;11.12;90.05
71047;SHT31;58703;48.978;8.982;2022-08-21T03:06:52;11.02;90.44
71047;SHT31;58703;48.978;8.982;2022-08-21T03:09:18;11.09;90.22
71047;SHT31;58703;48.978;8.982;2022-08-21T03:11:43;11.09;90.65
71047;SHT31;58703;48.978;8.982;2022-08-21T03:14:09;11.16;90.81
71047;SHT31;58703;48.978;8.982;2022-08-21T03:16:35;11.39;89.53
71047;SHT31;58703;48.978;8.982;2022-08-21T03:19:01;11.46;89.40
71047;SHT31;58703;48.978;8.982;2022-08-21T03:21:26;11.50;89.62
71047;SHT31;58703;48.978;8.982;2022-08-21T03:23:52;11.56;89.09
71047;SHT31;58703;48.978;8.982;2022-08-21T03:26:19;11.50;88.92
71047;SHT31;58703;48.978;8.982;2022-08-21T03:28:44;11.34;89.39
71047;SHT31;58703;48.978;8.982;2022-08-21T03:31:10;11.27;90.10
71047;SHT31;58703;48.978;8.982;2022-08-21T03:33:36;11.20;89.89
71047;SHT31;58703;48.978;8.982;2022-08-21T03:36:05;11.20;89.59
71047;SHT31;58703;48.978;8.982;2022-08-21T03:38:32;11.16;91.14
71047;SHT31;58703;48.978;8.982;2022-08-21T03:40:59;11.23;91.41
71047;SHT31;58703;48.978;8.982;2022-08-21T03:43:26;11.23;90.89
71047;SHT31;58703;48.978;8.982;2022-08-21T03:45:52;11.29;90.03
71047;SHT31;58703;48.978;8.982;2022-08-21T03:48:18;11.18;89.90
71047;SHT31;58703;48.978;8.982;2022-08-21T03:50:44;11.03;90.00
71047;SHT31;58703;48.978;8.982;2022-08-21T03:53:13;10.98;90.32
71047;SHT31;58703;48.978;8.982;2022-08-21T03:55:39;10.93;90.76
71047;SHT31;58703;48.978;8.982;2022-08-21T03:58:06;10.83;91.22
71047;SHT31;58703;48.978;8.982;2022-08-21T04:00:32;10.72;91.80
71047;SHT31;58703;48.978;8.982;2022-08-21T04:02:58;10.62;91.47
71047;SHT31;58703;48.978;8.982;2022-08-21T04:05:23;10.64;91.35
71047;SHT31;58703;48.978;8.982;2022-08-21T04:08:02;10.64;91.72
71047;SHT31;58703;48.978;8.982;2022-08-21T04:10:30;10.57;92.06
71047;SHT31;58703;48.978;8.982;2022-08-21T04:12:56;10.57;92.68
71047;SHT31;58703;48.978;8.982;2022-08-21T04:15:23;10.55;93.09
71047;SHT31;58703;48.978;8.982;2022-08-21T04:17:50;10.54;93.38
71047;SHT31;58703;48.978;8.982;2022-08-21T04:20:17;10.50;93.47
71047;SHT31;58703;48.978;8.982;2022-08-21T04:22:43;10.57;92.82
71047;SHT31;58703;48.978;8.982;2022-08-21T04:25:10;10.55;93.00
71047;SHT31;58703;48.978;8.982;2022-08-21T04:27:36;10.52;92.43
71047;SHT31;58703;48.978;8.982;2022-08-21T04:30:03;10.48;92.96
71047;SHT31;58703;48.978;8.982;2022-08-21T04:32:29;10.50;93.34
71047;SHT31;58703;48.978;8.982;2022-08-21T04:35:04;10.55;92.58
71047;SHT31;58703;48.978;8.982;2022-08-21T04:37:30;10.55;92.45
71047;SHT31;58703;48.978;8.982;2022-08-21T04:39:56;10.68;92.20
71047;SHT31;58703;48.978;8.982;2022-08-21T04:42:27;10.76;91.78
71047;SHT31;58703;48.978;8.982;2022-08-21T04:44:53;10.88;91.85
71047;SHT31;58703;48.978;8.982;2022-08-21T04:47:20;10.81;91.70
71047;SHT31;58703;48.978;8.982;2022-08-21T04:49:47;10.78;91.28
71047;SHT31;58703;48.978;8.982;2022-08-21T04:52:19;10.88;91.00
71047;SHT31;58703;48.978;8.982;2022-08-21T04:54:47;11.05;90.71
71047;SHT31;58703;48.978;8.982;2022-08-21T04:57:15;11.18;90.33
71047;SHT31;58703;48.978;8.982;2022-08-21T04:59:47;11.32;89.84
71047;SHT31;58703;48.978;8.982;2022-08-21T05:02:14;11.06;90.21
71047;SHT31;58703;48.978;8.982;2022-08-21T05:04:44;10.93;91.06
71047;SHT31;58703;48.978;8.982;2022-08-21T05:07:20;10.92;91.57
71047;SHT31;58703;48.978;8.982;2022-08-21T05:09:47;11.02;91.35
71047;SHT31;58703;48.978;8.982;2022-08-21T05:12:13;11.19;90.95
71047;SHT31;58703;48.978;8.982;2022-08-21T05:14:39;11.71;89.67
71047;SHT31;58703;48.978;8.982;2022-08-21T05:17:05;12.08;87.25
71047;SHT31;58703;48.978;8.982;2022-08-21T05:19:31;12.02;87.19
71047;SHT31;58703;48.978;8.982;2022-08-21T05:21:56;11.94;87.82
71047;SHT31;58703;48.978;8.982;2022-08-21T05:24:23;11.95;88.12
71047;SHT31;58703;48.978;8.982;2022-08-21T05:26:48;12.15;87.87
71047;SHT31;58703;48.978;8.982;2022-08-21T05:29:15;12.25;87.26
71047;SHT31;58703;48.978;8.982;2022-08-21T05:31:40;12.76;86.44
71047;SHT31;58703;48.978;8.982;2022-08-21T05:34:06;13.19;84.87
71047;SHT31;58703;48.978;8.982;2022-08-21T05:36:32;13.48;83.30
71047;SHT31;58703;48.978;8.982;2022-08-21T05:38:57;13.79;82.06
71047;SHT31;58703;48.978;8.982;2022-08-21T05:41:23;14.06;81.06
71047;SHT31;58703;48.978;8.982;2022-08-21T05:43:48;14.49;79.77
71047;SHT31;58703;48.978;8.982;2022-08-21T05:46:15;14.83;78.74
71047;SHT31;58703;48.978;8.982;2022-08-21T05:48:41;14.91;79.18
71047;SHT31;58703;48.978;8.982;2022-08-21T05:51:12;15.00;78.35
71047;SHT31;58703;48.978;8.982;2022-08-21T05:53:38;15.34;77.17
71047;SHT31;58703;48.978;8.982;2022-08-21T05:56:04;15.56;75.68
71047;SHT31;58703;48.978;8.982;2022-08-21T05:58:31;15.42;76.27
71047;SHT31;58703;48.978;8.982;2022-08-21T06:00:58;15.38;76.35
71047;SHT31;58703;48.978;8.982;2022-08-21T06:03:27;15.99;74.45
71047;SHT31;58703;48.978;8.982;2022-08-21T06:05:53;16.27;72.85
71047;SHT31;58703;48.978;8.982;2022-08-21T06:08:19;16.65;71.55
71047;SHT31;58703;48.978;8.982;2022-08-21T06:10:46;17.12;70.07
71047;SHT31;58703;48.978;8.982;2022-08-21T06:13:13;17.49;69.37
71047;SHT31;58703;48.978;8.982;2022-08-21T06:15:39;17.38;69.78
71047;SHT31;58703;48.978;8.982;2022-08-21T06:18:04;17.04;70.94
71047;SHT31;58703;48.978;8.982;2022-08-21T06:20:30;16.75;72.08
71047;SHT31;58703;48.978;8.982;2022-08-21T06:22:57;16.89;71.58
71047;SHT31;58703;48.978;8.982;2022-08-21T06:25:23;16.37;73.58
71047;SHT31;58703;48.978;8.982;2022-08-21T06:27:49;17.04;71.40
71047;SHT31;58703;48.978;8.982;2022-08-21T06:30:14;17.18;70.26
71047;SHT31;58703;48.978;8.982;2022-08-21T06:32:40;17.05;70.56
71047;SHT31;58703;48.978;8.982;2022-08-21T06:35:06;17.42;69.71
71047;SHT31;58703;48.978;8.982;2022-08-21T06:37:32;17.93;69.09
71047;SHT31;58703;48.978;8.982;2022-08-21T06:39:58;18.17;68.51
71047;SHT31;58703;48.978;8.982;2022-08-21T06:42:23;18.61;67.51
71047;SHT31;58703;48.978;8.982;2022-08-21T06:44:49;18.75;67.43
71047;SHT31;58703;48.978;8.982;2022-08-21T06:47:15;19.54;64.12
71047;SHT31;58703;48.978;8.982;2022-08-21T06:49:40;19.53;65.15
71047;SHT31;58703;48.978;8.982;2022-08-21T06:52:10;19.75;63.89
71047;SHT31;58703;48.978;8.982;2022-08-21T06:54:37;20.12;62.29
71047;SHT31;58703;48.978;8.982;2022-08-21T06:57:03;20.32;62.03
71047;SHT31;58703;48.978;8.982;2022-08-21T06:59:29;20.55;61.75
71047;SHT31;58703;48.978;8.982;2022-08-21T07:01:54;20.26;62.22
71047;SHT31;58703;48.978;8.982;2022-08-21T07:04:20;20.68;62.52
71047;SHT31;58703;48.978;8.982;2022-08-21T07:06:45;20.66;61.86
71047;SHT31;58703;48.978;8.982;2022-08-21T07:09:11;20.42;62.17
71047;SHT31;58703;48.978;8.982;2022-08-21T07:11:37;20.46;61.28
71047;SHT31;58703;48.978;8.982;2022-08-21T07:14:03;20.93;61.38
71047;SHT31;58703;48.978;8.982;2022-08-21T07:16:29;21.26;61.21
71047;SHT31;58703;48.978;8.982;2022-08-21T07:18:54;21.17;60.20
71047;SHT31;58703;48.978;8.982;2022-08-21T07:21:20;21.40;59.38
71047;SHT31;58703;48.978;8.982;2022-08-21T07:23:49;21.47;59.43
71047;SHT31;58703;48.978;8.982;2022-08-21T07:26:18;22.05;57.94
71047;SHT31;58703;48.978;8.982;2022-08-21T07:28:44;22.29;58.11
71047;SHT31;58703;48.978;8.982;2022-08-21T07:31:13;22.13;58.29
71047;SHT31;58703;48.978;8.982;2022-08-21T07:33:39;21.77;58.37
71047;SHT31;58703;48.978;8.982;2022-08-21T07:36:06;21.68;58.85
71047;SHT31;58703;48.978;8.982;2022-08-21T07:38:32;21.77;58.20
71047;SHT31;58703;48.978;8.982;2022-08-21T07:40:59;22.08;58.60
71047;SHT31;58703;48.978;8.982;2022-08-21T07:43:26;22.56;57.30
71047;SHT31;58703;48.978;8.982;2022-08-21T07:45:51;22.43;56.41
71047;SHT31;58703;48.978;8.982;2022-08-21T07:48:19;22.49;57.43
71047;SHT31;58703;48.978;8.982;2022-08-21T07:50:45;23.10;56.10
71047;SHT31;58703;48.978;8.982;2022-08-21T07:53:11;23.61;54.32
71047;SHT31;58703;48.978;8.982;2022-08-21T07:55:36;23.32;55.13
71047;SHT31;58703;48.978;8.982;2022-08-21T07:58:02;23.59;55.26
71047;SHT31;58703;48.978;8.982;2022-08-21T08:00:29;22.86;55.59
71047;SHT31;58703;48.978;8.982;2022-08-21T08:02:56;22.94;55.35
71047;SHT31;58703;48.978;8.982;2022-08-21T08:05:26;22.63;56.11
71047;SHT31;58703;48.978;8.982;2022-08-21T08:07:51;23.18;54.83
71047;SHT31;58703;48.978;8.982;2022-08-21T08:10:18;23.81;53.48
71047;SHT31;58703;48.978;8.982;2022-08-21T08:12:44;23.54;53.64
71047;SHT31;58703;48.978;8.982;2022-08-21T08:15:15;23.17;54.24
71047;SHT31;58703;48.978;8.982;2022-08-21T08:17:41;23.63;52.93
71047;SHT31;58703;48.978;8.982;2022-08-21T08:20:08;23.65;54.00
71047;SHT31;58703;48.978;8.982;2022-08-21T08:22:35;24.09;53.36
71047;SHT31;58703;48.978;8.982;2022-08-21T08:25:01;25.07;51.28
71047;SHT31;58703;48.978;8.982;2022-08-21T08:27:27;25.72;48.59
71047;SHT31;58703;48.978;8.982;2022-08-21T08:29:53;25.49;48.45
71047;SHT31;58703;48.978;8.982;2022-08-21T08:32:19;24.83;50.77
71047;SHT31;58703;48.978;8.982;2022-08-21T08:34:45;24.60;49.90
71047;SHT31;58703;48.978;8.982;2022-08-21T08:37:12;24.84;49.52
71047;SHT31;58703;48.978;8.982;2022-08-21T08:39:37;25.14;49.77
71047;SHT31;58703;48.978;8.982;2022-08-21T08:42:08;25.43;49.32
71047;SHT31;58703;48.978;8.982;2022-08-21T08:44:36;25.52;48.78
71047;SHT31;58703;48.978;8.982;2022-08-21T08:47:03;25.04;48.70
71047;SHT31;58703;48.978;8.982;2022-08-21T08:52:35;24.60;50.18
71047;SHT31;58703;48.978;8.982;2022-08-21T08:57:35;25.72;47.68
71047;SHT31;58703;48.978;8.982;2022-08-21T09:00:08;25.83;46.17
71047;SHT31;58703;48.978;8.982;2022-08-21T09:02:37;26.67;45.44
71047;SHT31;58703;48.978;8.982;2022-08-21T09:05:04;27.16;44.19
71047;SHT31;58703;48.978;8.982;2022-08-21T09:07:41;27.26;44.02
71047;SHT31;58703;48.978;8.982;2022-08-21T09:10:17;26.57;44.80
71047;SHT31;58703;48.978;8.982;2022-08-21T09:26:17;27.52;41.82
71047;SHT31;58703;48.978;8.982;2022-08-21T09:28:44;26.84;42.90
71047;SHT31;58703;48.978;8.982;2022-08-21T09:31:23;27.36;42.60
71047;SHT31;58703;48.978;8.982;2022-08-21T09:33:48;27.33;42.92
71047;SHT31;58703;48.978;8.982;2022-08-21T09:36:44;27.08;42.86
71047;SHT31;58703;48.978;8.982;2022-08-21T09:39:11;27.76;41.85
71047;SHT31;58703;48.978;8.982;2022-08-21T09:41:38;27.45;42.05
71047;SHT31;58703;48.978;8.982;2022-08-21T09:44:06;28.44;40.56
71047;SHT31;58703;48.978;8.982;2022-08-21T09:46:33;27.84;41.25
71047;SHT31;58703;48.978;8.982;2022-08-21T09:49:00;27.89;42.01
71047;SHT31;58703;48.978;8.982;2022-08-21T09:51:32;27.03;42.37
71047;SHT31;58703;48.978;8.982;2022-08-21T09:56:40;27.40;41.76
71047;SHT31;58703;48.978;8.982;2022-08-21T09:59:34;28.29;41.29
71047;SHT31;58703;48.978;8.982;2022-08-21T10:02:03;27.59;41.52
71047;SHT31;58703;48.978;8.982;2022-08-21T10:04:53;26.69;42.79
71047;SHT31;58703;48.978;8.982;2022-08-21T10:07:22;27.36;41.82
71047;SHT31;58703;48.978;8.982;2022-08-21T10:10:03;27.83;40.72
71047;SHT31;58703;48.978;8.982;2022-08-21T10:15:39;27.46;41.91
71047;SHT31;58703;48.978;8.982;2022-08-21T10:21:07;28.11;39.81
71047;SHT31;58703;48.978;8.982;2022-08-21T10:24:03;28.00;40.11
71047;SHT31;58703;48.978;8.982;2022-08-21T10:41:01;29.10;38.08
71047;SHT31;58703;48.978;8.982;2022-08-21T10:49:06;30.27;36.23
71047;SHT31;58703;48.978;8.982;2022-08-21T10:51:49;30.36;36.16
71047;SHT31;58703;48.978;8.982;2022-08-21T10:57:29;29.88;37.13
71047;SHT31;58703;48.978;8.982;2022-08-21T11:00:05;30.12;36.53
71047;SHT31;58703;48.978;8.982;2022-08-21T11:02:41;29.16;37.74
71047;SHT31;58703;48.978;8.982;2022-08-21T11:05:22;27.87;39.37
71047;SHT31;58703;48.978;8.982;2022-08-21T11:08:06;28.79;38.38
71047;SHT31;58703;48.978;8.982;2022-08-21T11:10:45;29.56;37.38
71047;SHT31;58703;48.978;8.982;2022-08-21T11:13:15;30.65;35.14
71047;SHT31;58703;48.978;8.982;2022-08-21T11:16:02;30.25;36.20
71047;SHT31;58703;48.978;8.982;2022-08-21T11:18:40;30.22;37.15
71047;SHT31;58703;48.978;8.982;2022-08-21T11:23:54;29.10;37.17
71047;SHT31;58703;48.978;8.982;2022-08-21T11:26:35;29.89;36.69
71047;SHT31;58703;48.978;8.982;2022-08-21T11:29:28;31.24;33.38
71047;SHT31;58703;48.978;8.982;2022-08-21T11:39:54;29.31;35.58
71047;SHT31;58703;48.978;8.982;2022-08-21T11:42:57;30.79;34.23
71047;SHT31;58703;48.978;8.982;2022-08-21T11:51:17;31.24;34.54
71047;SHT31;58703;48.978;8.982;2022-08-21T11:56:30;30.96;33.93
71047;SHT31;58703;48.978;8.982;2022-08-21T11:59:00;30.25;33.93
71047;SHT31;58703;48.978;8.982;2022-08-21T12:01:31;31.01;33.16
71047;SHT31;58703;48.978;8.982;2022-08-21T12:04:02;30.11;34.07
71047;SHT31;58703;48.978;8.982;2022-08-21T12:06:37;31.06;34.14
71047;SHT31;58703;48.978;8.982;2022-08-21T12:09:05;30.32;34.27
71047;SHT31;58703;48.978;8.982;2022-08-21T12:11:32;29.95;34.49
71047;SHT31;58703;48.978;8.982;2022-08-21T12:16:40;29.51;35.51
71047;SHT31;58703;48.978;8.982;2022-08-21T12:19:12;28.79;36.08
71047;SHT31;58703;48.978;8.982;2022-08-21T12:27:40;30.69;34.23
71047;SHT31;58703;48.978;8.982;2022-08-21T12:33:40;32.63;30.91
71047;SHT31;58703;48.978;8.982;2022-08-21T12:35:48;32.69;31.26
71047;SHT31;58703;48.978;8.982;2022-08-21T12:38:19;32.76;31.17
71047;SHT31;58703;48.978;8.982;2022-08-21T12:40:47;31.41;32.25
71047;SHT31;58703;48.978;8.982;2022-08-21T12:43:35;30.90;33.42
71047;SHT31;58703;48.978;8.982;2022-08-21T12:46:02;32.06;31.79
71047;SHT31;58703;48.978;8.982;2022-08-21T12:48:39;31.67;31.76
71047;SHT31;58703;48.978;8.982;2022-08-21T12:51:13;31.44;33.21
71047;SHT31;58703;48.978;8.982;2022-08-21T12:53:54;32.88;31.70
71047;SHT31;58703;48.978;8.982;2022-08-21T12:56:23;31.61;32.79
71047;SHT31;58703;48.978;8.982;2022-08-21T12:58:54;31.03;33.41
71047;SHT31;58703;48.978;8.982;2022-08-21T13:01:33;29.34;36.42
71047;SHT31;58703;48.978;8.982;2022-08-21T13:04:10;28.65;37.26
71047;SHT31;58703;48.978;8.982;2022-08-21T13:06:40;29.30;36.57
71047;SHT31;58703;48.978;8.982;2022-08-21T13:09:12;29.67;36.02
71047;SHT31;58703;48.978;8.982;2022-08-21T13:11:40;29.37;35.66
71047;SHT31;58703;48.978;8.982;2022-08-21T13:14:14;29.05;36.45
71047;SHT31;58703;48.978;8.982;2022-08-21T13:16:41;30.52;34.74
71047;SHT31;58703;48.978;8.982;2022-08-21T13:19:07;31.14;33.98
71047;SHT31;58703;48.978;8.982;2022-08-21T13:21:39;31.03;33.42
71047;SHT31;58703;48.978;8.982;2022-08-21T13:26:41;30.42;33.69
71047;SHT31;58703;48.978;8.982;2022-08-21T13:29:10;29.54;35.56
71047;SHT31;58703;48.978;8.982;2022-08-21T13:31:37;30.62;33.94
71047;SHT31;58703;48.978;8.982;2022-08-21T13:34:05;31.47;32.42
71047;SHT31;58703;48.978;8.982;2022-08-21T13:36:35;33.24;30.45
71047;SHT31;58703;48.978;8.982;2022-08-21T13:39:09;32.59;31.63
71047;SHT31;58703;48.978;8.982;2022-08-21T13:41:38;32.86;31.30
71047;SHT31;58703;48.978;8.982;2022-08-21T13:44:14;31.92;32.15
71047;SHT31;58703;48.978;8.982;2022-08-21T13:46:40;31.72;32.91
71047;SHT31;58703;48.978;8.982;2022-08-21T13:49:08;31.41;32.46
71047;SHT31;58703;48.978;8.982;2022-08-21T13:51:35;31.92;32.20
71047;SHT31;58703;48.978;8.982;2022-08-21T13:54:14;32.29;31.24
71047;SHT31;58703;48.978;8.982;2022-08-21T13:56:45;31.06;32.92
71047;SHT31;58703;48.978;8.982;2022-08-21T13:59:11;30.32;33.64
71047;SHT31;58703;48.978;8.982;2022-08-21T14:01:49;30.96;33.54
71047;SHT31;58703;48.978;8.982;2022-08-21T14:04:38;30.05;34.68
71047;SHT31;58703;48.978;8.982;2022-08-21T14:07:16;29.70;34.97
71047;SHT31;58703;48.978;8.982;2022-08-21T14:09:44;29.38;34.99
71047;SHT31;58703;48.978;8.982;2022-08-21T14:12:23;29.17;35.46
71047;SHT31;58703;48.978;8.982;2022-08-21T14:14:51;28.65;35.64
71047;SHT31;58703;48.978;8.982;2022-08-21T14:17:32;28.61;36.29
71047;SHT31;58703;48.978;8.982;2022-08-21T14:19:58;27.94;37.15
71047;SHT31;58703;48.978;8.982;2022-08-21T14:22:30;28.61;36.40
71047;SHT31;58703;48.978;8.982;2022-08-21T14:25:07;28.14;37.15
71047;SHT31;58703;48.978;8.982;2022-08-21T14:27:37;27.74;36.87
71047;SHT31;58703;48.978;8.982;2022-08-21T14:30:11;27.70;36.81
71047;SHT31;58703;48.978;8.982;2022-08-21T14:32:40;27.64;37.10
71047;SHT31;58703;48.978;8.982;2022-08-21T14:35:07;27.81;37.14
71047;SHT31;58703;48.978;8.982;2022-08-21T14:37:33;27.61;37.35
71047;SHT31;58703;48.978;8.982;2022-08-21T14:39:58;27.74;37.26
71047;SHT31;58703;48.978;8.982;2022-08-21T14:42:25;27.70;36.83
71047;SHT31;58703;48.978;8.982;2022-08-21T14:44:51;28.14;36.40
71047;SHT31;58703;48.978;8.982;2022-08-21T14:47:19;30.39;32.96
71047;SHT31;58703;48.978;8.982;2022-08-21T14:49:44;33.41;29.42
71047;SHT31;58703;48.978;8.982;2022-08-21T14:52:10;34.17;28.53
71047;SHT31;58703;48.978;8.982;2022-08-21T14:54:36;33.62;29.70
71047;SHT31;58703;48.978;8.982;2022-08-21T14:57:06;31.74;30.86
71047;SHT31;58703;48.978;8.982;2022-08-21T14:59:34;32.97;29.96
71047;SHT31;58703;48.978;8.982;2022-08-21T15:02:01;34.97;26.84
71047;SHT31;58703;48.978;8.982;2022-08-21T15:04:28;33.18;29.00
71047;SHT31;58703;48.978;8.982;2022-08-21T15:06:54;31.70;30.74
71047;SHT31;58703;48.978;8.982;2022-08-21T15:09:19;32.40;29.12
71047;SHT31;58703;48.978;8.982;2022-08-21T15:11:45;31.34;30.35
71047;SHT31;58703;48.978;8.982;2022-08-21T15:14:20;31.89;29.48
71047;SHT31;58703;48.978;8.982;2022-08-21T15:16:47;32.46;29.03
71047;SHT31;58703;48.978;8.982;2022-08-21T15:19:13;31.65;29.21
71047;SHT31;58703;48.978;8.982;2022-08-21T15:21:39;31.26;29.88
71047;SHT31;58703;48.978;8.982;2022-08-21T15:24:04;32.46;28.41
71047;SHT31;58703;48.978;8.982;2022-08-21T15:26:30;33.68;27.13
71047;SHT31;58703;48.978;8.982;2022-08-21T15:28:56;34.91;26.19
71047;SHT31;58703;48.978;8.982;2022-08-21T15:31:21;34.45;27.08
71047;SHT31;58703;48.978;8.982;2022-08-21T15:33:47;34.19;26.57
71047;SHT31;58703;48.978;8.982;2022-08-21T15:36:13;33.99;27.20
71047;SHT31;58703;48.978;8.982;2022-08-21T15:38:38;35.14;26.03
71047;SHT31;58703;48.978;8.982;2022-08-21T15:41:04;34.74;26.74
71047;SHT31;58703;48.978;8.982;2022-08-21T15:43:35;34.08;26.64
71047;SHT31;58703;48.978;8.982;2022-08-21T15:46:02;33.30;27.58
71047;SHT31;58703;48.978;8.982;2022-08-21T15:48:28;32.57;28.45
71047;SHT31;58703;48.978;8.982;2022-08-21T15:50:54;33.10;27.82
71047;SHT31;58703;48.978;8.982;2022-08-21T15:53:20;34.35;26.57
71047;SHT31;58703;48.978;8.982;2022-08-21T15:55:45;33.81;27.08
71047;SHT31;58703;48.978;8.982;2022-08-21T15:58:15;32.72;27.75
71047;SHT31;58703;48.978;8.982;2022-08-21T16:00:42;31.38;29.62
71047;SHT31;58703;48.978;8.982;2022-08-21T16:03:12;32.31;28.55
71047;SHT31;58703;48.978;8.982;2022-08-21T16:05:40;32.02;28.06
71047;SHT31;58703;48.978;8.982;2022-08-21T16:08:06;32.02;28.00
71047;SHT31;58703;48.978;8.982;2022-08-21T16:10:32;32.53;27.81
71047;SHT31;58703;48.978;8.982;2022-08-21T16:13:04;32.09;28.72
71047;SHT31;58703;48.978;8.982;2022-08-21T16:15:31;33.25;26.99
71047;SHT31;58703;48.978;8.982;2022-08-21T16:17:57;33.34;26.94
71047;SHT31;58703;48.978;8.982;2022-08-21T16:20:28;33.65;26.65
71047;SHT31;58703;48.978;8.982;2022-08-21T16:22:56;33.98;26.12
71047;SHT31;58703;48.978;8.982;2022-08-21T16:25:22;33.34;26.71
71047;SHT31;58703;48.978;8.982;2022-08-21T16:27:52;33.75;26.20
71047;SHT31;58703;48.978;8.982;2022-08-21T16:30:19;34.94;25.30
71047;SHT31;58703;48.978;8.982;2022-08-21T16:32:46;34.74;25.93
71047;SHT31;58703;48.978;8.982;2022-08-21T16:35:14;35.06;25.05
71047;SHT31;58703;48.978;8.982;2022-08-21T16:37:40;34.08;26.05
71047;SHT31;58703;48.978;8.982;2022-08-21T16:40:07;32.28;27.51
71047;SHT31;58703;48.978;8.982;2022-08-21T16:42:35;33.23;27.00
71047;SHT31;58703;48.978;8.982;2022-08-21T16:45:04;32.73;26.97
71047;SHT31;58703;48.978;8.982;2022-08-21T16:47:30;31.48;28.45
71047;SHT31;58703;48.978;8.982;2022-08-21T16:49:57;32.06;27.69
71047;SHT31;58703;48.978;8.982;2022-08-21T16:52:23;32.82;27.36
71047;SHT31;58703;48.978;8.982;2022-08-21T16:54:49;32.06;27.75
71047;SHT31;58703;48.978;8.982;2022-08-21T16:57:15;31.60;28.01
71047;SHT31;58703;48.978;8.982;2022-08-21T16:59:41;31.92;28.36
71047;SHT31;58703;48.978;8.982;2022-08-21T17:02:39;31.37;29.03